createdAt,value
2022-09-22T00:01:28.702Z,2.20
2022-09-22T00:04:03.272Z,2.43
2022-09-22T00:06:52.026Z,2.87
2022-09-22T00:09:21.055Z,2.27
2022-09-22T00:11:51.792Z,2.00
2022-09-22T00:14:26.161Z,2.07
2022-09-22T00:16:58.802Z,2.33
2022-09-22T00:19:29.857Z,2.00
2022-09-22T00:21:56.777Z,2.20
2022-09-22T00:24:26.699Z,2.00
2022-09-22T00:26:57.524Z,1.50
2022-09-22T00:29:27.046Z,1.70
2022-09-22T00:31:55.522Z,1.90
2022-09-22T00:34:25.640Z,2.50
2022-09-22T00:36:53.025Z,1.60
2022-09-22T00:39:20.014Z,1.70
2022-09-22T00:41:50.970Z,1.67
2022-09-22T00:44:27.142Z,1.60
2022-09-22T00:47:10.942Z,1.50
2022-09-22T00:50:08.256Z,2.03
2022-09-22T00:52:46.949Z,1.47
2022-09-22T00:55:21.077Z,1.83
2022-09-22T00:57:49.496Z,1.90
2022-09-22T01:00:17.172Z,1.70
2022-09-22T01:02:50.681Z,1.90
2022-09-22T01:05:19.713Z,1.53
2022-09-22T01:07:48.376Z,1.80
2022-09-22T01:10:15.359Z,1.57
2022-09-22T01:13:01.377Z,1.87
2022-09-22T01:16:00.113Z,1.67
2022-09-22T01:18:59.032Z,1.80
2022-09-22T01:21:59.093Z,1.87
2022-09-22T01:24:52.482Z,1.63
2022-09-22T01:28:03.581Z,2.17
2022-09-22T01:30:47.695Z,2.73
2022-09-22T01:34:02.037Z,1.67
2022-09-22T01:36:49.706Z,1.70
2022-09-22T01:39:26.118Z,1.40
2022-09-22T01:42:00.877Z,1.80
2022-09-22T01:44:36.652Z,1.50
2022-09-22T01:47:17.910Z,2.20
2022-09-22T01:49:52.208Z,1.90
2022-09-22T01:52:26.973Z,1.60
2022-09-22T01:55:01.203Z,1.63
2022-09-22T01:57:54.532Z,1.70
2022-09-22T02:00:23.422Z,1.60
2022-09-22T02:03:09.531Z,2.20
2022-09-22T02:05:46.169Z,1.93
2022-09-22T02:08:56.614Z,1.67
2022-09-22T02:11:23.733Z,1.63
2022-09-22T02:13:51.692Z,1.53
2022-09-22T02:16:22.407Z,1.90
2022-09-22T02:19:13.387Z,1.63
2022-09-22T02:21:44.780Z,1.90
2022-09-22T02:24:40.368Z,1.80
2022-09-22T02:27:14.595Z,1.87
2022-09-22T02:29:51.504Z,1.60
2022-09-22T02:32:21.122Z,1.53
2022-09-22T02:34:48.638Z,1.53
2022-09-22T02:37:33.886Z,2.23
2022-09-22T02:40:37.664Z,1.90
2022-09-22T02:43:24.001Z,1.63
2022-09-22T02:46:05.248Z,1.80
2022-09-22T02:48:46.373Z,2.13
2022-09-22T02:51:15.448Z,1.70
2022-09-22T02:53:42.308Z,1.27
2022-09-22T02:56:09.224Z,1.70
2022-09-22T02:58:36.234Z,1.73
2022-09-22T03:01:03.199Z,1.73
2022-09-22T03:03:30.014Z,1.77
2022-09-22T03:05:56.767Z,1.87
2022-09-22T03:08:23.517Z,1.53
2022-09-22T03:10:50.384Z,1.67
2022-09-22T03:13:17.701Z,1.50
2022-09-22T03:15:45.844Z,1.80
2022-09-22T03:18:13.690Z,1.53
2022-09-22T03:20:40.653Z,1.77
2022-09-22T03:23:07.959Z,1.73
2022-09-22T03:25:34.892Z,1.60
2022-09-22T03:28:02.518Z,1.90
2022-09-22T03:30:29.651Z,1.57
2022-09-22T03:32:56.672Z,1.63
2022-09-22T03:35:23.417Z,2.00
2022-09-22T03:37:50.208Z,1.80
2022-09-22T03:40:17.070Z,1.60
2022-09-22T03:42:44.697Z,1.73
2022-09-22T03:45:12.680Z,1.50
2022-09-22T03:47:39.601Z,1.70
2022-09-22T03:50:07.153Z,1.30
2022-09-22T03:52:34.739Z,1.53
2022-09-22T03:55:02.932Z,1.40
2022-09-22T03:57:30.344Z,1.43
2022-09-22T03:59:57.271Z,1.50
2022-09-22T04:02:24.034Z,1.80
2022-09-22T04:04:50.792Z,1.70
2022-09-22T04:07:17.814Z,2.30
2022-09-22T04:09:44.537Z,1.83
2022-09-22T04:12:11.401Z,2.27
2022-09-22T04:14:38.194Z,2.03
2022-09-22T04:17:05.565Z,1.67
2022-09-22T04:19:36.187Z,1.90
2022-09-22T04:22:04.348Z,1.50
2022-09-22T04:24:31.577Z,1.40
2022-09-22T04:27:28.212Z,1.80
2022-09-22T04:29:45.082Z,1.83
2022-09-22T04:32:11.888Z,1.70
2022-09-22T04:34:38.643Z,2.80
2022-09-22T04:37:05.741Z,2.50
2022-09-22T04:39:32.675Z,2.17
2022-09-22T04:41:59.357Z,1.67
2022-09-22T04:44:26.158Z,1.87
2022-09-22T04:46:53.050Z,1.60
2022-09-22T04:49:19.788Z,1.70
2022-09-22T04:51:46.629Z,1.77
2022-09-22T04:54:14.862Z,1.50
2022-09-22T04:56:44.850Z,1.47
2022-09-22T04:59:11.958Z,1.80
2022-09-22T05:01:39.151Z,1.70
2022-09-22T05:04:06.099Z,1.90
2022-09-22T05:06:32.907Z,1.60
2022-09-22T05:08:59.707Z,1.70
2022-09-22T05:11:26.561Z,1.73
2022-09-22T05:13:53.289Z,1.60
2022-09-22T05:16:20.066Z,1.53
2022-09-22T05:18:49.382Z,1.60
2022-09-22T05:21:18.748Z,2.77
2022-09-22T05:23:46.219Z,2.07
2022-09-22T05:26:13.084Z,2.43
2022-09-22T05:28:40.794Z,1.63
2022-09-22T05:31:08.232Z,1.87
2022-09-22T05:33:35.086Z,2.03
2022-09-22T05:36:02.716Z,1.90
2022-09-22T05:38:29.528Z,1.50
2022-09-22T05:40:56.296Z,2.17
2022-09-22T05:43:23.279Z,2.00
2022-09-22T05:45:50.191Z,2.10
2022-09-22T05:48:17.450Z,1.87
2022-09-22T05:50:47.335Z,2.23
2022-09-22T05:54:21.293Z,2.10
2022-09-22T05:57:06.283Z,1.80
2022-09-22T05:59:45.010Z,1.57
2022-09-22T06:02:25.223Z,1.70
2022-09-22T06:04:54.156Z,2.00
2022-09-22T06:07:22.713Z,1.50
2022-09-22T06:09:50.356Z,1.50
2022-09-22T06:12:18.879Z,1.60
2022-09-22T06:14:46.094Z,1.63
2022-09-22T06:17:13.181Z,1.97
2022-09-22T06:19:41.224Z,1.90
2022-09-22T06:22:11.025Z,2.03
2022-09-22T06:24:38.004Z,2.30
2022-09-22T06:27:05.125Z,1.97
2022-09-22T06:29:31.863Z,2.00
2022-09-22T06:31:58.640Z,1.87
2022-09-22T06:34:27.118Z,2.43
2022-09-22T06:36:57.155Z,2.37
2022-09-22T06:39:23.897Z,2.00
2022-09-22T06:41:50.632Z,2.23
2022-09-22T06:44:17.574Z,1.97
2022-09-22T06:46:45.636Z,2.03
2022-09-22T06:49:12.838Z,2.20
2022-09-22T06:51:39.970Z,2.30
2022-09-22T06:54:07.222Z,2.80
2022-09-22T06:56:39.787Z,3.00
2022-09-22T06:59:10.929Z,2.30
2022-09-22T07:01:39.448Z,3.80
2022-09-22T07:04:06.831Z,2.57
2022-09-22T07:06:33.787Z,2.23
2022-09-22T07:09:00.699Z,3.33
2022-09-22T07:11:27.472Z,2.57
2022-09-22T07:13:54.830Z,2.45
2022-09-22T07:16:25.194Z,2.50
2022-09-22T07:18:58.241Z,2.58
2022-09-22T07:21:27.755Z,2.30
2022-09-22T07:23:56.553Z,2.00
2022-09-22T07:26:30.912Z,2.42
2022-09-22T07:29:00.736Z,2.95
2022-09-22T07:31:30.396Z,2.42
2022-09-22T07:34:00.225Z,3.08
2022-09-22T07:36:30.694Z,2.33
2022-09-22T07:39:03.731Z,2.42
2022-09-22T07:41:32.298Z,2.72
2022-09-22T07:44:20.827Z,2.92
2022-09-22T07:46:47.696Z,2.65
2022-09-22T07:49:15.182Z,2.50
2022-09-22T07:51:42.127Z,2.63
2022-09-22T07:54:09.477Z,2.80
2022-09-22T07:56:40.682Z,3.05
2022-09-22T07:59:10.947Z,2.80
2022-09-22T08:01:43.814Z,2.75
2022-09-22T08:04:18.820Z,3.33
2022-09-22T08:06:48.716Z,2.95
2022-09-22T08:09:15.950Z,2.53
2022-09-22T08:11:45.999Z,2.95
2022-09-22T08:14:12.929Z,2.67
2022-09-22T08:16:41.058Z,2.58
2022-09-22T08:19:12.278Z,2.90
2022-09-22T08:21:48.465Z,2.95
2022-09-22T08:24:22.730Z,2.80
2022-09-22T08:26:53.134Z,3.78
2022-09-22T08:29:20.674Z,3.45
2022-09-22T08:31:49.313Z,3.75
2022-09-22T08:34:17.804Z,3.20
2022-09-22T08:36:49.268Z,2.97
2022-09-22T08:39:18.179Z,2.72
2022-09-22T08:42:14.844Z,3.03
2022-09-22T08:45:27.149Z,3.22
2022-09-22T08:48:26.098Z,2.70
2022-09-22T08:51:19.509Z,2.88
2022-09-22T08:53:51.549Z,2.42
2022-09-22T08:57:05.978Z,2.20
2022-09-22T08:59:48.567Z,3.40
2022-09-22T09:02:32.764Z,2.40
2022-09-22T09:05:22.990Z,2.20
2022-09-22T09:08:21.571Z,4.03
2022-09-22T09:11:24.982Z,2.78
2022-09-22T09:14:30.346Z,2.60
2022-09-22T09:17:10.456Z,2.50
2022-09-22T09:19:45.121Z,2.70
2022-09-22T09:22:27.428Z,2.40
2022-09-22T09:25:23.303Z,3.25
2022-09-22T09:27:57.717Z,2.70
2022-09-22T09:30:24.522Z,3.28
2022-09-22T09:33:00.612Z,1.98
2022-09-22T09:35:42.079Z,3.30
2022-09-22T09:38:14.770Z,2.92
2022-09-22T09:40:42.771Z,2.50
2022-09-22T09:43:10.992Z,2.30
2022-09-22T09:46:04.934Z,2.22
2022-09-22T09:48:41.006Z,2.40
2022-09-22T09:51:14.196Z,2.40
2022-09-22T09:53:47.509Z,2.03
2022-09-22T09:56:26.746Z,2.20
2022-09-22T09:59:22.087Z,1.98
2022-09-22T10:01:52.696Z,2.15
2022-09-22T10:04:35.908Z,2.28
2022-09-22T10:07:15.105Z,1.65
2022-09-22T10:09:43.423Z,1.83
2022-09-22T10:12:32.803Z,1.60
2022-09-22T10:15:01.633Z,1.40
2022-09-22T10:17:33.916Z,1.20
2022-09-22T10:20:25.692Z,1.42
2022-09-22T10:22:54.389Z,1.33
2022-09-22T10:25:27.303Z,1.20
2022-09-22T10:28:12.585Z,1.40
2022-09-22T10:30:41.110Z,1.40
2022-09-22T10:33:22.067Z,1.30
2022-09-22T10:36:11.798Z,1.00
2022-09-22T10:38:43.538Z,1.10
2022-09-22T10:41:27.236Z,1.23
2022-09-22T10:44:37.558Z,1.00
2022-09-22T10:47:21.563Z,1.10
2022-09-22T10:50:38.618Z,1.17
2022-09-22T10:53:45.679Z,1.23
2022-09-22T10:56:50.241Z,1.10
2022-09-22T10:59:59.498Z,1.10
2022-09-22T11:02:41.314Z,1.10
2022-09-22T11:05:48.853Z,0.95
2022-09-22T11:08:39.130Z,0.90
2022-09-22T11:11:40.554Z,1.10
2022-09-22T11:15:03.974Z,1.08
2022-09-22T11:18:00.556Z,1.20
2022-09-22T11:20:47.637Z,1.10
2022-09-22T11:23:44.994Z,1.13
2022-09-22T11:26:52.134Z,1.23
2022-09-22T11:29:57.308Z,1.00
2022-09-22T11:32:40.192Z,1.20
2022-09-22T11:35:57.148Z,1.33
2022-09-22T11:38:47.726Z,1.17
2022-09-22T11:41:38.726Z,1.40
2022-09-22T11:44:32.116Z,1.50
2022-09-22T11:47:25.905Z,1.50
2022-09-22T11:50:40.581Z,1.50
2022-09-22T11:53:58.281Z,1.42
2022-09-22T11:56:42.934Z,1.30
2022-09-22T11:59:37.459Z,1.38
2022-09-22T12:02:20.615Z,1.50
2022-09-22T12:04:57.770Z,1.42
2022-09-22T12:07:33.812Z,1.67
2022-09-22T12:10:16.900Z,1.20
2022-09-22T12:12:48.569Z,1.40
2022-09-22T12:15:30.944Z,1.40
2022-09-22T12:18:19.044Z,1.50
2022-09-22T12:21:14.354Z,1.48
2022-09-22T12:23:47.699Z,1.20
2022-09-22T12:26:32.020Z,1.20
2022-09-22T12:29:02.587Z,1.33
2022-09-22T12:31:40.519Z,1.30
2022-09-22T12:34:25.180Z,1.00
2022-09-22T12:37:08.377Z,1.00
2022-09-22T12:39:49.370Z,1.30
2022-09-22T12:42:37.790Z,1.20
2022-09-22T12:45:38.001Z,1.40
2022-09-22T12:48:28.930Z,1.20
2022-09-22T12:51:17.206Z,1.30
2022-09-22T12:53:44.287Z,1.50
2022-09-22T12:56:52.753Z,1.05
2022-09-22T12:59:37.624Z,1.23
2022-09-22T13:02:17.346Z,1.23
2022-09-22T13:04:56.335Z,1.42
2022-09-22T13:07:44.715Z,1.48
2022-09-22T13:10:26.530Z,1.27
2022-09-22T13:13:05.762Z,1.30
2022-09-22T13:15:45.733Z,1.63
2022-09-22T13:18:46.564Z,1.10
2022-09-22T13:21:13.249Z,1.40
2022-09-22T13:23:59.729Z,1.52
2022-09-22T13:26:38.918Z,1.45
2022-09-22T13:29:17.608Z,1.52
2022-09-22T13:31:51.080Z,1.30
2022-09-22T13:34:37.175Z,1.40
2022-09-22T13:37:16.621Z,1.45
2022-09-22T13:39:49.447Z,1.23
2022-09-22T13:42:34.058Z,1.42
2022-09-22T13:45:13.753Z,1.30
2022-09-22T13:47:43.533Z,1.30
2022-09-22T13:50:22.940Z,3.63
2022-09-22T13:52:51.706Z,1.33
2022-09-22T13:55:34.816Z,1.40
2022-09-22T13:58:03.490Z,1.42
2022-09-22T14:01:01.793Z,1.30
2022-09-22T14:03:37.851Z,1.40
2022-09-22T14:06:11.687Z,1.10
2022-09-22T14:08:38.944Z,1.30
2022-09-22T14:11:15.160Z,1.30
2022-09-22T14:13:58.624Z,1.33
2022-09-22T14:16:38.910Z,1.42
2022-09-22T14:19:17.581Z,1.10
2022-09-22T14:21:59.265Z,1.17
2022-09-22T14:24:27.783Z,1.00
2022-09-22T14:27:04.172Z,1.50
2022-09-22T14:29:35.348Z,1.23
2022-09-22T14:32:16.873Z,1.58
2022-09-22T14:34:51.668Z,1.20
2022-09-22T14:37:35.926Z,1.10
2022-09-22T14:40:13.205Z,1.60
2022-09-22T14:42:40.078Z,1.20
2022-09-22T14:45:09.572Z,1.27
2022-09-22T14:47:42.290Z,1.10
2022-09-22T14:50:20.273Z,1.08
2022-09-22T14:53:21.700Z,1.20
2022-09-22T14:55:53.241Z,1.13
2022-09-22T14:58:27.122Z,1.27
2022-09-22T15:01:19.177Z,1.35
2022-09-22T15:04:03.660Z,1.10
2022-09-22T15:06:39.403Z,1.00
2022-09-22T15:09:19.053Z,1.17
2022-09-22T15:11:50.021Z,1.30
2022-09-22T15:14:35.178Z,1.10
2022-09-22T15:17:23.148Z,1.30
2022-09-22T15:19:57.121Z,1.40
2022-09-22T15:22:24.499Z,1.23
2022-09-22T15:24:51.659Z,1.17
2022-09-22T15:27:19.093Z,1.33
2022-09-22T15:29:47.960Z,1.17
2022-09-22T15:32:15.451Z,1.20
2022-09-22T15:34:44.541Z,1.10
2022-09-22T15:37:19.340Z,1.60
2022-09-22T15:39:46.133Z,1.48
2022-09-22T15:42:13.113Z,2.33
2022-09-22T15:44:40.531Z,1.70
2022-09-22T15:47:17.007Z,1.42
2022-09-22T15:49:44.995Z,1.30
2022-09-22T15:52:11.840Z,1.27
2022-09-22T15:54:38.577Z,1.13
2022-09-22T15:57:06.292Z,1.20
2022-09-22T15:59:33.689Z,1.20
2022-09-22T16:02:01.716Z,1.33
2022-09-22T16:04:33.605Z,1.20
2022-09-22T16:07:05.657Z,1.23
2022-09-22T16:09:32.381Z,1.00
2022-09-22T16:11:59.598Z,1.23
2022-09-22T16:14:26.413Z,1.20
2022-09-22T16:16:53.219Z,1.27
2022-09-22T16:19:20.230Z,1.27
2022-09-22T16:21:56.693Z,1.23
2022-09-22T16:24:23.539Z,1.20
2022-09-22T16:26:51.709Z,1.47
2022-09-22T16:29:18.561Z,1.23
2022-09-22T16:31:45.369Z,1.20
2022-09-22T16:34:12.401Z,1.37
2022-09-22T16:36:41.549Z,1.30
2022-09-22T16:39:08.304Z,1.40
2022-09-22T16:41:36.364Z,1.57
2022-09-22T16:44:04.786Z,1.40
2022-09-22T16:46:34.357Z,1.40
2022-09-22T16:49:12.805Z,1.40
2022-09-22T16:51:42.577Z,1.50
2022-09-22T16:54:13.537Z,1.37
2022-09-22T16:56:43.504Z,1.67
2022-09-22T16:59:15.146Z,1.30
2022-09-22T17:01:43.940Z,1.47
2022-09-22T17:04:16.222Z,1.40
2022-09-22T17:06:43.545Z,1.50
2022-09-22T17:09:11.994Z,1.50
2022-09-22T17:11:42.897Z,1.60
2022-09-22T17:14:21.183Z,1.40
2022-09-22T17:16:56.413Z,1.60
2022-09-22T17:19:27.982Z,1.47
2022-09-22T17:21:56.634Z,1.90
2022-09-22T17:24:25.953Z,2.57
2022-09-22T17:26:56.136Z,1.90
2022-09-22T17:29:32.718Z,2.07
2022-09-22T17:32:04.291Z,1.90
2022-09-22T17:34:33.802Z,2.20
2022-09-22T17:37:02.011Z,1.73
2022-09-22T17:39:30.285Z,2.30
2022-09-22T17:41:57.405Z,2.13
2022-09-22T17:44:28.108Z,2.10
2022-09-22T17:47:13.713Z,2.10
2022-09-22T17:49:58.972Z,2.33
2022-09-22T17:52:31.957Z,2.20
2022-09-22T17:55:09.533Z,2.50
2022-09-22T17:57:45.484Z,1.90
2022-09-22T18:00:21.972Z,2.20
2022-09-22T18:02:53.540Z,2.07
2022-09-22T18:05:26.448Z,1.80
2022-09-22T18:07:57.815Z,2.40
2022-09-22T18:10:32.322Z,2.60
2022-09-22T18:13:00.441Z,2.50
2022-09-22T18:15:29.154Z,2.90
2022-09-22T18:17:57.819Z,2.60
2022-09-22T18:20:26.107Z,2.70
2022-09-22T18:22:54.195Z,2.20
2022-09-22T18:25:24.167Z,2.47
2022-09-22T18:27:53.136Z,1.90
2022-09-22T18:30:19.932Z,2.67
2022-09-22T18:32:48.151Z,2.00
2022-09-22T18:35:15.167Z,2.03
2022-09-22T18:37:42.110Z,1.70
2022-09-22T18:40:12.182Z,1.97
2022-09-22T18:42:39.400Z,1.70
2022-09-22T18:45:06.923Z,1.30
2022-09-22T18:47:44.060Z,1.97
2022-09-22T18:50:12.423Z,1.50
2022-09-22T18:52:43.100Z,1.77
2022-09-22T18:55:11.842Z,2.20
2022-09-22T18:57:38.706Z,2.37
2022-09-22T19:00:06.160Z,1.93
2022-09-22T19:02:33.067Z,1.87
2022-09-22T19:04:59.877Z,1.90
2022-09-22T19:07:43.355Z,1.87
2022-09-22T19:10:20.501Z,2.10
2022-09-22T19:12:49.087Z,1.97
2022-09-22T19:15:18.943Z,1.90
2022-09-22T19:17:49.291Z,2.10
2022-09-22T19:20:26.093Z,1.90
2022-09-22T19:22:53.852Z,2.13
2022-09-22T19:25:22.169Z,2.07
2022-09-22T19:27:50.930Z,1.93
2022-09-22T19:30:21.838Z,2.03
2022-09-22T19:32:50.117Z,2.30
2022-09-22T19:35:17.199Z,2.37
2022-09-22T19:37:44.083Z,2.10
2022-09-22T19:40:18.885Z,2.00
2022-09-22T19:42:47.205Z,2.20
2022-09-22T19:45:14.610Z,2.27
2022-09-22T19:47:41.475Z,2.10
2022-09-22T19:50:09.076Z,2.03
2022-09-22T19:52:37.689Z,2.23
2022-09-22T19:55:11.478Z,2.30
2022-09-22T19:57:41.530Z,2.13
2022-09-22T20:00:18.096Z,2.43
2022-09-22T20:02:45.668Z,2.00
2022-09-22T20:05:20.716Z,2.10
2022-09-22T20:07:49.110Z,2.10
2022-09-22T20:10:17.354Z,1.73
2022-09-22T20:12:44.388Z,1.60
2022-09-22T20:15:15.040Z,1.80
2022-09-22T20:17:46.010Z,1.87
2022-09-22T20:20:20.650Z,1.80
2022-09-22T20:22:53.978Z,1.83
2022-09-22T20:25:28.359Z,1.70
2022-09-22T20:27:56.099Z,1.57
2022-09-22T20:30:23.221Z,1.63
2022-09-22T20:32:50.966Z,1.70
2022-09-22T20:35:21.618Z,1.90
2022-09-22T20:37:48.406Z,1.60
2022-09-22T20:40:21.319Z,1.43
2022-09-22T20:42:53.053Z,1.50
2022-09-22T20:45:22.869Z,1.63
2022-09-22T20:47:50.033Z,1.87
2022-09-22T20:50:16.891Z,2.03
2022-09-22T20:52:43.652Z,1.80
2022-09-22T20:55:11.463Z,1.63
2022-09-22T20:57:38.925Z,1.73
2022-09-22T21:00:06.914Z,1.90
2022-09-22T21:02:33.816Z,1.90
2022-09-22T21:05:00.713Z,1.43
2022-09-22T21:07:27.550Z,1.30
2022-09-22T21:10:12.603Z,1.70
2022-09-22T21:12:40.362Z,1.50
2022-09-22T21:15:08.041Z,1.70
2022-09-22T21:17:35.397Z,1.90
2022-09-22T21:20:03.417Z,1.70
2022-09-22T21:22:31.029Z,1.30
2022-09-22T21:24:57.801Z,1.90
2022-09-22T21:27:24.984Z,1.60
2022-09-22T21:29:51.855Z,1.40
2022-09-22T21:32:19.879Z,1.70
2022-09-22T21:34:46.656Z,1.20
2022-09-22T21:37:14.491Z,1.80
2022-09-22T21:39:41.274Z,1.43
2022-09-22T21:42:07.990Z,1.47
2022-09-22T21:44:34.781Z,1.60
2022-09-22T21:47:01.490Z,1.57
2022-09-22T21:49:28.420Z,1.80
2022-09-22T21:51:55.234Z,1.50
2022-09-22T21:54:23.092Z,1.47
2022-09-22T21:56:50.683Z,1.70
2022-09-22T21:59:17.582Z,2.43
2022-09-22T22:01:45.160Z,1.90
2022-09-22T22:04:15.223Z,1.73
2022-09-22T22:06:46.220Z,1.70
2022-09-22T22:09:20.974Z,1.67
2022-09-22T22:11:51.701Z,1.50
2022-09-22T22:14:20.924Z,1.30
2022-09-22T22:16:52.906Z,1.60
2022-09-22T22:19:24.783Z,1.53
2022-09-22T22:21:52.331Z,1.60
2022-09-22T22:24:29.043Z,1.60
2022-09-22T22:27:05.854Z,1.77
2022-09-22T22:29:38.397Z,1.63
2022-09-22T22:32:07.947Z,1.83
2022-09-22T22:34:34.860Z,1.70
2022-09-22T22:37:01.891Z,1.73
2022-09-22T22:39:29.813Z,1.60
2022-09-22T22:41:56.560Z,1.70
2022-09-22T22:44:23.400Z,1.73
2022-09-22T22:46:50.397Z,2.07
2022-09-22T22:49:17.234Z,2.20
2022-09-22T22:51:44.271Z,2.40
2022-09-22T22:54:12.569Z,2.10
2022-09-22T22:56:42.374Z,1.80
2022-09-22T22:59:11.117Z,1.67
2022-09-22T23:01:38.009Z,1.60
2022-09-22T23:04:08.327Z,2.17
2022-09-22T23:06:43.945Z,1.70
2022-09-22T23:09:15.831Z,1.80
2022-09-22T23:11:43.793Z,1.80
2022-09-22T23:14:12.670Z,1.87
2022-09-22T23:16:43.579Z,1.70
2022-09-22T23:19:14.492Z,1.67
2022-09-22T23:21:41.447Z,1.70
2022-09-22T23:24:16.325Z,1.88
2022-09-22T23:26:45.218Z,1.47
2022-09-22T23:29:12.329Z,1.67
2022-09-22T23:31:39.175Z,1.77
2022-09-22T23:34:06.262Z,1.90
2022-09-22T23:36:33.060Z,1.43
2022-09-22T23:39:03.395Z,1.93
2022-09-22T23:41:32.982Z,1.60
2022-09-22T23:43:59.992Z,1.80
2022-09-22T23:46:27.040Z,1.50
2022-09-22T23:48:55.456Z,1.67
2022-09-22T23:51:22.955Z,1.60
2022-09-22T23:53:49.880Z,1.80
2022-09-22T23:56:16.696Z,1.87
2022-09-22T23:58:43.512Z,1.40
